sensor_id;sensor_type;location;lat;lon;timestamp;P1;durP1;ratioP1;P2;durP2;ratioP2
49548;SDS011;35450;44.518;7.466;2023-03-01T00:02:13;13.05;;;7.70;;
49548;SDS011;35450;44.518;7.466;2023-03-01T00:05:17;14.68;;;8.02;;
49548;SDS011;35450;44.518;7.466;2023-03-01T00:08:21;13.82;;;7.93;;
49548;SDS011;35450;44.518;7.466;2023-03-01T00:11:26;15.27;;;8.60;;
49548;SDS011;35450;44.518;7.466;2023-03-01T00:14:32;14.07;;;9.13;;
49548;SDS011;35450;44.518;7.466;2023-03-01T00:17:37;12.60;;;7.32;;
49548;SDS011;35450;44.518;7.466;2023-03-01T00:20:41;9.45;;;6.00;;
49548;SDS011;35450;44.518;7.466;2023-03-01T00:23:45;13.23;;;6.45;;
49548;SDS011;35450;44.518;7.466;2023-03-01T00:26:52;8.13;;;5.63;;
49548;SDS011;35450;44.518;7.466;2023-03-01T00:29:58;31.25;;;10.48;;
49548;SDS011;35450;44.518;7.466;2023-03-01T00:33:02;31.65;;;12.02;;
49548;SDS011;35450;44.518;7.466;2023-03-01T00:36:07;43.25;;;14.32;;
49548;SDS011;35450;44.518;7.466;2023-03-01T00:39:13;110.88;;;32.22;;
49548;SDS011;35450;44.518;7.466;2023-03-01T00:42:18;49.38;;;16.75;;
49548;SDS011;35450;44.518;7.466;2023-03-01T00:45:22;129.95;;;36.83;;
49548;SDS011;35450;44.518;7.466;2023-03-01T00:48:26;41.45;;;15.27;;
49548;SDS011;35450;44.518;7.466;2023-03-01T00:51:31;16.35;;;8.63;;
49548;SDS011;35450;44.518;7.466;2023-03-01T00:54:35;31.50;;;18.55;;
49548;SDS011;35450;44.518;7.466;2023-03-01T00:57:39;16.83;;;10.35;;
49548;SDS011;35450;44.518;7.466;2023-03-01T01:00:43;11.40;;;7.20;;
49548;SDS011;35450;44.518;7.466;2023-03-01T01:03:49;10.38;;;5.43;;
49548;SDS011;35450;44.518;7.466;2023-03-01T01:06:55;11.15;;;6.60;;
49548;SDS011;35450;44.518;7.466;2023-03-01T01:09:59;7.07;;;5.13;;
49548;SDS011;35450;44.518;7.466;2023-03-01T01:13:03;9.18;;;5.10;;
49548;SDS011;35450;44.518;7.466;2023-03-01T01:16:08;8.68;;;4.80;;
49548;SDS011;35450;44.518;7.466;2023-03-01T01:19:12;7.63;;;4.65;;
49548;SDS011;35450;44.518;7.466;2023-03-01T01:22:16;7.35;;;5.13;;
49548;SDS011;35450;44.518;7.466;2023-03-01T01:25:21;8.10;;;5.25;;
49548;SDS011;35450;44.518;7.466;2023-03-01T01:28:27;6.28;;;4.47;;
49548;SDS011;35450;44.518;7.466;2023-03-01T01:31:32;7.05;;;4.60;;
49548;SDS011;35450;44.518;7.466;2023-03-01T01:34:37;6.82;;;4.53;;
49548;SDS011;35450;44.518;7.466;2023-03-01T01:37:41;6.90;;;4.65;;
49548;SDS011;35450;44.518;7.466;2023-03-01T01:40:46;5.20;;;3.55;;
49548;SDS011;35450;44.518;7.466;2023-03-01T01:47:20;7.03;;;4.05;;
49548;SDS011;35450;44.518;7.466;2023-03-01T01:50:25;4.78;;;3.20;;
49548;SDS011;35450;44.518;7.466;2023-03-01T01:53:30;5.32;;;3.60;;
49548;SDS011;35450;44.518;7.466;2023-03-01T01:56:34;5.68;;;4.43;;
49548;SDS011;35450;44.518;7.466;2023-03-01T01:59:40;7.97;;;4.38;;
49548;SDS011;35450;44.518;7.466;2023-03-01T02:02:47;6.75;;;4.63;;
49548;SDS011;35450;44.518;7.466;2023-03-01T02:09:14;9.18;;;6.38;;
49548;SDS011;35450;44.518;7.466;2023-03-01T02:12:20;10.13;;;7.05;;
49548;SDS011;35450;44.518;7.466;2023-03-01T02:15:27;8.27;;;5.20;;
49548;SDS011;35450;44.518;7.466;2023-03-01T02:18:37;7.53;;;4.63;;
49548;SDS011;35450;44.518;7.466;2023-03-01T02:21:55;5.97;;;4.32;;
49548;SDS011;35450;44.518;7.466;2023-03-01T02:31:19;11.15;;;4.20;;
49548;SDS011;35450;44.518;7.466;2023-03-01T02:34:43;5.53;;;4.07;;
49548;SDS011;35450;44.518;7.466;2023-03-01T02:37:47;5.85;;;3.85;;
49548;SDS011;35450;44.518;7.466;2023-03-01T02:40:51;4.93;;;3.20;;
49548;SDS011;35450;44.518;7.466;2023-03-01T02:43:56;4.72;;;3.80;;
49548;SDS011;35450;44.518;7.466;2023-03-01T02:47:01;5.65;;;3.38;;
49548;SDS011;35450;44.518;7.466;2023-03-01T02:50:42;5.22;;;3.65;;
49548;SDS011;35450;44.518;7.466;2023-03-01T02:57:12;5.75;;;3.78;;
49548;SDS011;35450;44.518;7.466;2023-03-01T03:00:19;6.32;;;4.13;;
49548;SDS011;35450;44.518;7.466;2023-03-01T03:03:28;5.03;;;3.60;;
49548;SDS011;35450;44.518;7.466;2023-03-01T03:06:32;5.90;;;4.38;;
49548;SDS011;35450;44.518;7.466;2023-03-01T03:09:36;7.97;;;5.15;;
49548;SDS011;35450;44.518;7.466;2023-03-01T03:12:41;7.15;;;5.05;;
49548;SDS011;35450;44.518;7.466;2023-03-01T03:15:46;8.88;;;5.30;;
49548;SDS011;35450;44.518;7.466;2023-03-01T03:18:50;6.90;;;5.40;;
49548;SDS011;35450;44.518;7.466;2023-03-01T03:21:54;8.18;;;5.50;;
49548;SDS011;35450;44.518;7.466;2023-03-01T03:24:58;6.15;;;3.72;;
49548;SDS011;35450;44.518;7.466;2023-03-01T03:28:02;5.43;;;3.33;;
49548;SDS011;35450;44.518;7.466;2023-03-01T03:31:12;5.13;;;3.63;;
49548;SDS011;35450;44.518;7.466;2023-03-01T03:34:17;3.42;;;2.70;;
49548;SDS011;35450;44.518;7.466;2023-03-01T03:37:20;3.33;;;2.70;;
49548;SDS011;35450;44.518;7.466;2023-03-01T03:40:47;4.82;;;2.80;;
49548;SDS011;35450;44.518;7.466;2023-03-01T03:43:53;4.03;;;3.00;;
49548;SDS011;35450;44.518;7.466;2023-03-01T03:46:57;5.65;;;3.47;;
49548;SDS011;35450;44.518;7.466;2023-03-01T03:50:01;7.07;;;4.45;;
49548;SDS011;35450;44.518;7.466;2023-03-01T03:53:06;6.10;;;4.93;;
49548;SDS011;35450;44.518;7.466;2023-03-01T03:56:12;8.25;;;5.43;;
49548;SDS011;35450;44.518;7.466;2023-03-01T03:59:16;6.60;;;4.32;;
49548;SDS011;35450;44.518;7.466;2023-03-01T04:02:19;5.13;;;3.55;;
49548;SDS011;35450;44.518;7.466;2023-03-01T04:05:24;4.57;;;3.47;;
49548;SDS011;35450;44.518;7.466;2023-03-01T04:08:29;7.03;;;3.85;;
49548;SDS011;35450;44.518;7.466;2023-03-01T04:11:33;4.38;;;3.38;;
49548;SDS011;35450;44.518;7.466;2023-03-01T04:14:38;3.88;;;3.20;;
49548;SDS011;35450;44.518;7.466;2023-03-01T04:17:43;4.28;;;3.45;;
49548;SDS011;35450;44.518;7.466;2023-03-01T04:20:47;5.30;;;3.72;;
49548;SDS011;35450;44.518;7.466;2023-03-01T04:23:51;5.18;;;3.15;;
49548;SDS011;35450;44.518;7.466;2023-03-01T04:26:56;7.03;;;4.00;;
49548;SDS011;35450;44.518;7.466;2023-03-01T04:30:00;7.07;;;3.92;;
49548;SDS011;35450;44.518;7.466;2023-03-01T04:33:05;6.68;;;4.05;;
49548;SDS011;35450;44.518;7.466;2023-03-01T04:36:15;6.22;;;4.00;;
49548;SDS011;35450;44.518;7.466;2023-03-01T04:39:20;5.95;;;4.30;;
49548;SDS011;35450;44.518;7.466;2023-03-01T04:42:24;6.03;;;4.18;;
49548;SDS011;35450;44.518;7.466;2023-03-01T04:45:27;6.95;;;4.68;;
49548;SDS011;35450;44.518;7.466;2023-03-01T04:48:31;6.72;;;5.28;;
49548;SDS011;35450;44.518;7.466;2023-03-01T04:51:36;8.93;;;6.38;;
49548;SDS011;35450;44.518;7.466;2023-03-01T04:54:39;8.90;;;5.82;;
49548;SDS011;35450;44.518;7.466;2023-03-01T04:57:43;9.10;;;6.53;;
49548;SDS011;35450;44.518;7.466;2023-03-01T05:00:47;12.43;;;7.50;;
49548;SDS011;35450;44.518;7.466;2023-03-01T05:03:52;9.40;;;7.10;;
49548;SDS011;35450;44.518;7.466;2023-03-01T05:06:56;13.13;;;7.60;;
49548;SDS011;35450;44.518;7.466;2023-03-01T05:10:01;11.05;;;7.50;;
49548;SDS011;35450;44.518;7.466;2023-03-01T05:13:05;14.43;;;8.25;;
49548;SDS011;35450;44.518;7.466;2023-03-01T05:16:10;13.40;;;9.52;;
49548;SDS011;35450;44.518;7.466;2023-03-01T05:19:16;19.45;;;13.10;;
49548;SDS011;35450;44.518;7.466;2023-03-01T05:22:26;17.33;;;12.25;;
49548;SDS011;35450;44.518;7.466;2023-03-01T05:25:30;15.85;;;10.90;;
49548;SDS011;35450;44.518;7.466;2023-03-01T05:28:36;17.92;;;12.05;;
49548;SDS011;35450;44.518;7.466;2023-03-01T05:31:41;19.38;;;11.93;;
49548;SDS011;35450;44.518;7.466;2023-03-01T05:34:46;22.77;;;13.50;;
49548;SDS011;35450;44.518;7.466;2023-03-01T05:37:50;17.60;;;12.60;;
49548;SDS011;35450;44.518;7.466;2023-03-01T05:40:54;16.27;;;11.10;;
49548;SDS011;35450;44.518;7.466;2023-03-01T05:43:59;17.38;;;11.82;;
49548;SDS011;35450;44.518;7.466;2023-03-01T05:47:03;19.50;;;11.52;;
49548;SDS011;35450;44.518;7.466;2023-03-01T05:50:07;19.75;;;12.02;;
49548;SDS011;35450;44.518;7.466;2023-03-01T05:53:12;20.60;;;12.82;;
49548;SDS011;35450;44.518;7.466;2023-03-01T05:56:18;17.95;;;12.40;;
49548;SDS011;35450;44.518;7.466;2023-03-01T05:59:22;27.42;;;15.55;;
49548;SDS011;35450;44.518;7.466;2023-03-01T06:02:26;15.60;;;10.73;;
49548;SDS011;35450;44.518;7.466;2023-03-01T06:05:30;19.02;;;12.20;;
49548;SDS011;35450;44.518;7.466;2023-03-01T06:08:34;18.90;;;11.98;;
49548;SDS011;35450;44.518;7.466;2023-03-01T06:11:38;23.50;;;14.15;;
49548;SDS011;35450;44.518;7.466;2023-03-01T06:14:42;44.38;;;24.35;;
49548;SDS011;35450;44.518;7.466;2023-03-01T06:17:48;68.88;;;38.58;;
49548;SDS011;35450;44.518;7.466;2023-03-01T06:20:53;34.55;;;19.15;;
49548;SDS011;35450;44.518;7.466;2023-03-01T06:23:58;19.27;;;11.30;;
49548;SDS011;35450;44.518;7.466;2023-03-01T06:27:02;15.73;;;10.35;;
49548;SDS011;35450;44.518;7.466;2023-03-01T06:30:06;17.15;;;11.13;;
49548;SDS011;35450;44.518;7.466;2023-03-01T06:33:13;13.65;;;9.57;;
49548;SDS011;35450;44.518;7.466;2023-03-01T06:36:17;17.05;;;10.63;;
49548;SDS011;35450;44.518;7.466;2023-03-01T06:39:24;21.00;;;11.82;;
49548;SDS011;35450;44.518;7.466;2023-03-01T06:42:28;16.92;;;11.13;;
49548;SDS011;35450;44.518;7.466;2023-03-01T06:45:32;22.92;;;10.38;;
49548;SDS011;35450;44.518;7.466;2023-03-01T06:48:36;30.08;;;16.90;;
49548;SDS011;35450;44.518;7.466;2023-03-01T06:51:40;30.77;;;17.20;;
49548;SDS011;35450;44.518;7.466;2023-03-01T06:54:44;48.40;;;25.42;;
49548;SDS011;35450;44.518;7.466;2023-03-01T06:57:48;39.63;;;22.05;;
49548;SDS011;35450;44.518;7.466;2023-03-01T07:01:04;37.10;;;22.42;;
49548;SDS011;35450;44.518;7.466;2023-03-01T07:04:10;39.75;;;22.98;;
49548;SDS011;35450;44.518;7.466;2023-03-01T07:07:15;39.60;;;20.10;;
49548;SDS011;35450;44.518;7.466;2023-03-01T07:10:21;25.52;;;14.60;;
49548;SDS011;35450;44.518;7.466;2023-03-01T07:13:25;26.42;;;15.68;;
49548;SDS011;35450;44.518;7.466;2023-03-01T07:16:28;26.20;;;16.73;;
49548;SDS011;35450;44.518;7.466;2023-03-01T07:19:32;37.67;;;20.52;;
49548;SDS011;35450;44.518;7.466;2023-03-01T07:22:36;28.58;;;16.55;;
49548;SDS011;35450;44.518;7.466;2023-03-01T07:25:44;19.00;;;13.05;;
49548;SDS011;35450;44.518;7.466;2023-03-01T07:28:54;18.38;;;10.82;;
49548;SDS011;35450;44.518;7.466;2023-03-01T07:31:58;21.23;;;11.95;;
49548;SDS011;35450;44.518;7.466;2023-03-01T07:35:02;19.90;;;12.90;;
49548;SDS011;35450;44.518;7.466;2023-03-01T07:38:06;23.40;;;14.52;;
49548;SDS011;35450;44.518;7.466;2023-03-01T07:41:10;26.70;;;14.98;;
49548;SDS011;35450;44.518;7.466;2023-03-01T07:44:14;25.55;;;16.55;;
49548;SDS011;35450;44.518;7.466;2023-03-01T07:47:19;31.35;;;19.30;;
49548;SDS011;35450;44.518;7.466;2023-03-01T07:50:23;29.95;;;18.65;;
49548;SDS011;35450;44.518;7.466;2023-03-01T07:53:27;27.63;;;18.02;;
49548;SDS011;35450;44.518;7.466;2023-03-01T07:56:32;62.58;;;29.27;;
49548;SDS011;35450;44.518;7.466;2023-03-01T07:59:36;66.78;;;33.40;;
49548;SDS011;35450;44.518;7.466;2023-03-01T08:02:40;52.90;;;24.73;;
49548;SDS011;35450;44.518;7.466;2023-03-01T08:05:45;61.95;;;25.40;;
49548;SDS011;35450;44.518;7.466;2023-03-01T08:08:49;53.25;;;25.70;;
49548;SDS011;35450;44.518;7.466;2023-03-01T08:11:53;48.53;;;22.95;;
49548;SDS011;35450;44.518;7.466;2023-03-01T08:14:57;49.33;;;21.38;;
49548;SDS011;35450;44.518;7.466;2023-03-01T08:18:01;37.83;;;19.38;;
49548;SDS011;35450;44.518;7.466;2023-03-01T08:21:06;33.17;;;18.80;;
49548;SDS011;35450;44.518;7.466;2023-03-01T08:24:12;30.73;;;18.55;;
49548;SDS011;35450;44.518;7.466;2023-03-01T08:27:16;34.38;;;17.40;;
49548;SDS011;35450;44.518;7.466;2023-03-01T08:30:20;22.30;;;12.88;;
49548;SDS011;35450;44.518;7.466;2023-03-01T08:33:27;22.77;;;12.65;;
49548;SDS011;35450;44.518;7.466;2023-03-01T08:36:32;21.20;;;12.93;;
49548;SDS011;35450;44.518;7.466;2023-03-01T08:39:38;25.17;;;16.13;;
49548;SDS011;35450;44.518;7.466;2023-03-01T08:42:42;27.50;;;16.08;;
49548;SDS011;35450;44.518;7.466;2023-03-01T08:45:48;25.15;;;15.55;;
49548;SDS011;35450;44.518;7.466;2023-03-01T08:48:52;32.78;;;18.17;;
49548;SDS011;35450;44.518;7.466;2023-03-01T08:51:56;33.88;;;18.10;;
49548;SDS011;35450;44.518;7.466;2023-03-01T08:54:59;31.30;;;16.52;;
49548;SDS011;35450;44.518;7.466;2023-03-01T08:58:05;35.65;;;17.65;;
49548;SDS011;35450;44.518;7.466;2023-03-01T09:01:09;29.88;;;17.73;;
49548;SDS011;35450;44.518;7.466;2023-03-01T09:04:14;33.08;;;17.70;;
49548;SDS011;35450;44.518;7.466;2023-03-01T09:07:20;42.05;;;22.05;;
49548;SDS011;35450;44.518;7.466;2023-03-01T09:10:24;40.53;;;22.95;;
49548;SDS011;35450;44.518;7.466;2023-03-01T09:13:28;49.38;;;30.30;;
49548;SDS011;35450;44.518;7.466;2023-03-01T09:16:34;42.33;;;25.95;;
49548;SDS011;35450;44.518;7.466;2023-03-01T09:19:39;50.38;;;26.20;;
49548;SDS011;35450;44.518;7.466;2023-03-01T09:22:43;39.25;;;24.25;;
49548;SDS011;35450;44.518;7.466;2023-03-01T09:25:47;45.20;;;25.92;;
49548;SDS011;35450;44.518;7.466;2023-03-01T09:28:52;32.53;;;20.50;;
49548;SDS011;35450;44.518;7.466;2023-03-01T09:31:57;34.40;;;21.02;;
49548;SDS011;35450;44.518;7.466;2023-03-01T09:35:01;31.73;;;19.80;;
49548;SDS011;35450;44.518;7.466;2023-03-01T09:38:08;30.48;;;19.10;;
49548;SDS011;35450;44.518;7.466;2023-03-01T09:44:55;32.60;;;20.50;;
49548;SDS011;35450;44.518;7.466;2023-03-01T09:48:06;30.45;;;19.83;;
49548;SDS011;35450;44.518;7.466;2023-03-01T09:51:30;31.00;;;19.23;;
49548;SDS011;35450;44.518;7.466;2023-03-01T09:54:36;27.30;;;17.92;;
49548;SDS011;35450;44.518;7.466;2023-03-01T09:57:45;22.90;;;14.82;;
49548;SDS011;35450;44.518;7.466;2023-03-01T10:00:57;18.48;;;12.45;;
49548;SDS011;35450;44.518;7.466;2023-03-01T10:10:53;21.90;;;13.70;;
49548;SDS011;35450;44.518;7.466;2023-03-01T10:14:43;20.08;;;13.27;;
49548;SDS011;35450;44.518;7.466;2023-03-01T10:17:55;20.40;;;13.60;;
49548;SDS011;35450;44.518;7.466;2023-03-01T10:21:05;17.73;;;11.77;;
49548;SDS011;35450;44.518;7.466;2023-03-01T10:24:20;18.05;;;11.57;;
49548;SDS011;35450;44.518;7.466;2023-03-01T10:27:34;17.50;;;10.88;;
49548;SDS011;35450;44.518;7.466;2023-03-01T10:30:45;18.23;;;12.02;;
49548;SDS011;35450;44.518;7.466;2023-03-01T10:33:50;20.58;;;12.13;;
49548;SDS011;35450;44.518;7.466;2023-03-01T10:37:08;21.00;;;13.15;;
49548;SDS011;35450;44.518;7.466;2023-03-01T10:40:15;22.02;;;14.70;;
49548;SDS011;35450;44.518;7.466;2023-03-01T10:43:25;31.95;;;14.57;;
49548;SDS011;35450;44.518;7.466;2023-03-01T10:46:47;26.23;;;13.20;;
49548;SDS011;35450;44.518;7.466;2023-03-01T10:50:05;24.98;;;15.77;;
49548;SDS011;35450;44.518;7.466;2023-03-01T10:53:22;23.20;;;14.65;;
49548;SDS011;35450;44.518;7.466;2023-03-01T10:56:29;23.63;;;14.77;;
49548;SDS011;35450;44.518;7.466;2023-03-01T11:06:31;32.00;;;18.50;;
49548;SDS011;35450;44.518;7.466;2023-03-01T11:09:39;28.75;;;18.00;;
49548;SDS011;35450;44.518;7.466;2023-03-01T11:12:43;30.63;;;18.00;;
49548;SDS011;35450;44.518;7.466;2023-03-01T11:16:05;33.65;;;18.65;;
49548;SDS011;35450;44.518;7.466;2023-03-01T11:19:17;27.65;;;17.67;;
49548;SDS011;35450;44.518;7.466;2023-03-01T11:22:23;27.13;;;17.08;;
49548;SDS011;35450;44.518;7.466;2023-03-01T11:25:33;27.23;;;15.95;;
49548;SDS011;35450;44.518;7.466;2023-03-01T11:28:40;26.90;;;16.80;;
49548;SDS011;35450;44.518;7.466;2023-03-01T11:31:45;28.58;;;15.93;;
49548;SDS011;35450;44.518;7.466;2023-03-01T11:38:02;31.33;;;16.52;;
49548;SDS011;35450;44.518;7.466;2023-03-01T11:41:08;28.35;;;17.58;;
49548;SDS011;35450;44.518;7.466;2023-03-01T11:44:23;26.92;;;16.55;;
49548;SDS011;35450;44.518;7.466;2023-03-01T11:47:33;27.60;;;17.73;;
49548;SDS011;35450;44.518;7.466;2023-03-01T11:54:06;39.72;;;16.92;;
49548;SDS011;35450;44.518;7.466;2023-03-01T12:41:47;29.08;;;17.58;;
49548;SDS011;35450;44.518;7.466;2023-03-01T12:52:28;39.33;;;18.25;;
49548;SDS011;35450;44.518;7.466;2023-03-01T12:58:29;28.58;;;18.63;;
49548;SDS011;35450;44.518;7.466;2023-03-01T13:08:14;34.47;;;19.45;;
49548;SDS011;35450;44.518;7.466;2023-03-01T13:11:27;31.98;;;18.35;;
49548;SDS011;35450;44.518;7.466;2023-03-01T13:17:42;32.88;;;19.00;;
49548;SDS011;35450;44.518;7.466;2023-03-01T13:20:49;40.50;;;21.23;;
49548;SDS011;35450;44.518;7.466;2023-03-01T13:23:55;31.48;;;18.23;;
49548;SDS011;35450;44.518;7.466;2023-03-01T13:33:48;24.58;;;16.50;;
49548;SDS011;35450;44.518;7.466;2023-03-01T13:36:53;28.85;;;15.60;;
49548;SDS011;35450;44.518;7.466;2023-03-01T13:43:29;27.90;;;17.75;;
49548;SDS011;35450;44.518;7.466;2023-03-01T13:46:33;27.88;;;16.50;;
49548;SDS011;35450;44.518;7.466;2023-03-01T13:52:47;29.85;;;19.42;;
49548;SDS011;35450;44.518;7.466;2023-03-01T13:56:02;35.00;;;22.92;;
49548;SDS011;35450;44.518;7.466;2023-03-01T13:59:17;23.58;;;16.15;;
49548;SDS011;35450;44.518;7.466;2023-03-01T14:02:23;26.38;;;15.15;;
49548;SDS011;35450;44.518;7.466;2023-03-01T14:05:27;25.70;;;16.48;;
49548;SDS011;35450;44.518;7.466;2023-03-01T14:08:32;36.28;;;16.30;;
49548;SDS011;35450;44.518;7.466;2023-03-01T14:20:52;28.52;;;17.65;;
49548;SDS011;35450;44.518;7.466;2023-03-01T14:23:57;28.27;;;17.98;;
49548;SDS011;35450;44.518;7.466;2023-03-01T14:27:01;34.53;;;17.85;;
49548;SDS011;35450;44.518;7.466;2023-03-01T14:30:30;29.95;;;17.90;;
49548;SDS011;35450;44.518;7.466;2023-03-01T14:33:35;33.92;;;18.55;;
49548;SDS011;35450;44.518;7.466;2023-03-01T14:36:40;27.42;;;16.77;;
49548;SDS011;35450;44.518;7.466;2023-03-01T14:39:44;32.75;;;19.25;;
49548;SDS011;35450;44.518;7.466;2023-03-01T14:42:48;28.65;;;18.48;;
49548;SDS011;35450;44.518;7.466;2023-03-01T14:45:53;33.85;;;19.60;;
49548;SDS011;35450;44.518;7.466;2023-03-01T14:49:01;26.67;;;17.08;;
49548;SDS011;35450;44.518;7.466;2023-03-01T14:52:20;31.55;;;19.80;;
49548;SDS011;35450;44.518;7.466;2023-03-01T14:55:28;32.95;;;17.70;;
49548;SDS011;35450;44.518;7.466;2023-03-01T14:58:37;29.75;;;18.67;;
49548;SDS011;35450;44.518;7.466;2023-03-01T15:01:42;24.50;;;16.05;;
49548;SDS011;35450;44.518;7.466;2023-03-01T15:04:52;25.13;;;14.98;;
49548;SDS011;35450;44.518;7.466;2023-03-01T15:08:01;29.45;;;17.85;;
49548;SDS011;35450;44.518;7.466;2023-03-01T15:17:49;26.40;;;15.48;;
49548;SDS011;35450;44.518;7.466;2023-03-01T15:21:09;27.33;;;15.20;;
49548;SDS011;35450;44.518;7.466;2023-03-01T15:24:33;27.98;;;13.98;;
49548;SDS011;35450;44.518;7.466;2023-03-01T15:27:39;19.65;;;11.23;;
49548;SDS011;35450;44.518;7.466;2023-03-01T15:30:54;14.80;;;8.90;;
49548;SDS011;35450;44.518;7.466;2023-03-01T15:34:34;12.07;;;7.30;;
49548;SDS011;35450;44.518;7.466;2023-03-01T15:37:40;8.88;;;6.22;;
49548;SDS011;35450;44.518;7.466;2023-03-01T15:40:51;11.00;;;6.85;;
49548;SDS011;35450;44.518;7.466;2023-03-01T15:43:56;12.20;;;8.50;;
49548;SDS011;35450;44.518;7.466;2023-03-01T15:47:25;15.27;;;6.50;;
49548;SDS011;35450;44.518;7.466;2023-03-01T15:50:35;11.88;;;5.68;;
49548;SDS011;35450;44.518;7.466;2023-03-01T15:53:48;6.18;;;3.60;;
49548;SDS011;35450;44.518;7.466;2023-03-01T15:56:54;6.18;;;3.33;;
49548;SDS011;35450;44.518;7.466;2023-03-01T15:59:58;6.05;;;4.25;;
49548;SDS011;35450;44.518;7.466;2023-03-01T16:03:02;10.45;;;2.60;;
49548;SDS011;35450;44.518;7.466;2023-03-01T16:06:08;5.82;;;2.83;;
49548;SDS011;35450;44.518;7.466;2023-03-01T16:09:13;7.25;;;2.20;;
49548;SDS011;35450;44.518;7.466;2023-03-01T16:12:18;12.80;;;5.82;;
49548;SDS011;35450;44.518;7.466;2023-03-01T16:15:31;7.80;;;4.68;;
49548;SDS011;35450;44.518;7.466;2023-03-01T16:18:38;5.70;;;3.50;;
49548;SDS011;35450;44.518;7.466;2023-03-01T16:21:42;3.53;;;1.98;;
49548;SDS011;35450;44.518;7.466;2023-03-01T16:24:49;4.00;;;2.50;;
49548;SDS011;35450;44.518;7.466;2023-03-01T16:27:54;2.70;;;2.00;;
49548;SDS011;35450;44.518;7.466;2023-03-01T16:30:59;4.88;;;3.38;;
49548;SDS011;35450;44.518;7.466;2023-03-01T16:34:04;4.20;;;1.90;;
49548;SDS011;35450;44.518;7.466;2023-03-01T16:37:08;2.50;;;1.55;;
49548;SDS011;35450;44.518;7.466;2023-03-01T16:43:20;3.60;;;1.80;;
49548;SDS011;35450;44.518;7.466;2023-03-01T16:46:25;3.33;;;1.70;;
49548;SDS011;35450;44.518;7.466;2023-03-01T16:49:31;3.38;;;1.95;;
49548;SDS011;35450;44.518;7.466;2023-03-01T16:52:35;5.28;;;2.45;;
49548;SDS011;35450;44.518;7.466;2023-03-01T16:55:39;5.82;;;2.83;;
49548;SDS011;35450;44.518;7.466;2023-03-01T16:58:48;4.28;;;2.97;;
49548;SDS011;35450;44.518;7.466;2023-03-01T17:01:52;8.23;;;3.25;;
49548;SDS011;35450;44.518;7.466;2023-03-01T17:04:57;5.00;;;3.30;;
49548;SDS011;35450;44.518;7.466;2023-03-01T17:08:01;4.53;;;2.97;;
49548;SDS011;35450;44.518;7.466;2023-03-01T17:11:06;6.53;;;3.88;;
49548;SDS011;35450;44.518;7.466;2023-03-01T17:14:12;8.05;;;4.68;;
49548;SDS011;35450;44.518;7.466;2023-03-01T17:17:16;9.68;;;5.10;;
49548;SDS011;35450;44.518;7.466;2023-03-01T17:20:20;9.13;;;5.10;;
49548;SDS011;35450;44.518;7.466;2023-03-01T17:23:24;11.68;;;4.50;;
49548;SDS011;35450;44.518;7.466;2023-03-01T17:26:29;12.82;;;8.05;;
49548;SDS011;35450;44.518;7.466;2023-03-01T17:29:34;16.48;;;8.90;;
49548;SDS011;35450;44.518;7.466;2023-03-01T17:32:38;25.30;;;12.88;;
49548;SDS011;35450;44.518;7.466;2023-03-01T17:35:42;27.10;;;14.63;;
49548;SDS011;35450;44.518;7.466;2023-03-01T17:38:48;16.45;;;9.32;;
49548;SDS011;35450;44.518;7.466;2023-03-01T17:41:53;12.05;;;6.78;;
49548;SDS011;35450;44.518;7.466;2023-03-01T17:44:57;13.30;;;8.13;;
49548;SDS011;35450;44.518;7.466;2023-03-01T17:48:01;17.30;;;8.65;;
49548;SDS011;35450;44.518;7.466;2023-03-01T17:51:08;12.95;;;5.95;;
49548;SDS011;35450;44.518;7.466;2023-03-01T17:54:14;23.75;;;11.82;;
49548;SDS011;35450;44.518;7.466;2023-03-01T17:57:17;14.48;;;8.52;;
49548;SDS011;35450;44.518;7.466;2023-03-01T18:00:22;13.55;;;8.02;;
49548;SDS011;35450;44.518;7.466;2023-03-01T18:03:26;19.10;;;12.35;;
49548;SDS011;35450;44.518;7.466;2023-03-01T18:06:30;13.45;;;8.43;;
49548;SDS011;35450;44.518;7.466;2023-03-01T18:09:34;14.02;;;8.38;;
49548;SDS011;35450;44.518;7.466;2023-03-01T18:12:38;14.18;;;7.45;;
49548;SDS011;35450;44.518;7.466;2023-03-01T18:15:42;27.83;;;12.05;;
49548;SDS011;35450;44.518;7.466;2023-03-01T18:18:46;32.55;;;15.73;;
49548;SDS011;35450;44.518;7.466;2023-03-01T18:21:54;20.70;;;9.30;;
49548;SDS011;35450;44.518;7.466;2023-03-01T18:24:59;9.45;;;4.40;;
49548;SDS011;35450;44.518;7.466;2023-03-01T18:28:03;6.88;;;4.63;;
49548;SDS011;35450;44.518;7.466;2023-03-01T18:31:08;6.88;;;4.95;;
49548;SDS011;35450;44.518;7.466;2023-03-01T18:34:13;8.88;;;5.80;;
49548;SDS011;35450;44.518;7.466;2023-03-01T18:37:17;5.32;;;3.10;;
49548;SDS011;35450;44.518;7.466;2023-03-01T18:40:21;5.97;;;3.85;;
49548;SDS011;35450;44.518;7.466;2023-03-01T18:43:25;14.05;;;9.43;;
49548;SDS011;35450;44.518;7.466;2023-03-01T18:46:31;11.52;;;8.30;;
49548;SDS011;35450;44.518;7.466;2023-03-01T18:49:36;9.18;;;6.63;;
49548;SDS011;35450;44.518;7.466;2023-03-01T18:52:40;4.03;;;2.90;;
49548;SDS011;35450;44.518;7.466;2023-03-01T18:55:44;3.55;;;2.13;;
49548;SDS011;35450;44.518;7.466;2023-03-01T18:58:48;4.00;;;2.45;;
49548;SDS011;35450;44.518;7.466;2023-03-01T19:01:52;4.00;;;2.25;;
49548;SDS011;35450;44.518;7.466;2023-03-01T19:04:56;4.63;;;2.85;;
49548;SDS011;35450;44.518;7.466;2023-03-01T19:07:59;5.38;;;3.53;;
49548;SDS011;35450;44.518;7.466;2023-03-01T19:11:04;4.43;;;2.88;;
49548;SDS011;35450;44.518;7.466;2023-03-01T19:14:08;7.45;;;4.43;;
49548;SDS011;35450;44.518;7.466;2023-03-01T19:17:12;7.75;;;5.18;;
49548;SDS011;35450;44.518;7.466;2023-03-01T19:20:16;9.30;;;4.88;;
49548;SDS011;35450;44.518;7.466;2023-03-01T19:23:20;8.65;;;5.68;;
49548;SDS011;35450;44.518;7.466;2023-03-01T19:26:25;4.32;;;3.78;;
49548;SDS011;35450;44.518;7.466;2023-03-01T19:29:30;4.07;;;2.42;;
49548;SDS011;35450;44.518;7.466;2023-03-01T19:32:34;3.33;;;3.00;;
49548;SDS011;35450;44.518;7.466;2023-03-01T19:35:38;8.95;;;5.93;;
49548;SDS011;35450;44.518;7.466;2023-03-01T19:38:42;3.67;;;2.92;;
49548;SDS011;35450;44.518;7.466;2023-03-01T19:41:46;3.47;;;2.33;;
49548;SDS011;35450;44.518;7.466;2023-03-01T19:44:50;1.83;;;1.63;;
49548;SDS011;35450;44.518;7.466;2023-03-01T19:47:54;2.58;;;2.00;;
49548;SDS011;35450;44.518;7.466;2023-03-01T19:50:59;5.45;;;4.25;;
49548;SDS011;35450;44.518;7.466;2023-03-01T19:54:03;2.88;;;2.42;;
49548;SDS011;35450;44.518;7.466;2023-03-01T19:57:08;6.18;;;4.10;;
49548;SDS011;35450;44.518;7.466;2023-03-01T20:00:12;9.73;;;6.65;;
49548;SDS011;35450;44.518;7.466;2023-03-01T20:03:17;9.77;;;6.75;;
49548;SDS011;35450;44.518;7.466;2023-03-01T20:06:21;14.90;;;8.73;;
49548;SDS011;35450;44.518;7.466;2023-03-01T20:09:28;6.70;;;4.55;;
49548;SDS011;35450;44.518;7.466;2023-03-01T20:12:33;9.82;;;4.53;;
49548;SDS011;35450;44.518;7.466;2023-03-01T20:15:42;8.45;;;4.85;;
49548;SDS011;35450;44.518;7.466;2023-03-01T20:18:46;5.55;;;2.90;;
49548;SDS011;35450;44.518;7.466;2023-03-01T20:21:50;8.05;;;4.82;;
49548;SDS011;35450;44.518;7.466;2023-03-01T20:24:54;10.43;;;4.78;;
49548;SDS011;35450;44.518;7.466;2023-03-01T20:27:58;7.90;;;4.45;;
49548;SDS011;35450;44.518;7.466;2023-03-01T20:31:06;6.90;;;4.28;;
49548;SDS011;35450;44.518;7.466;2023-03-01T20:34:13;11.20;;;3.83;;
49548;SDS011;35450;44.518;7.466;2023-03-01T20:37:17;5.15;;;3.47;;
49548;SDS011;35450;44.518;7.466;2023-03-01T20:40:21;6.05;;;4.15;;
49548;SDS011;35450;44.518;7.466;2023-03-01T20:43:29;9.18;;;5.18;;